Terminal Aerodrome Forecast
Issued by NWS Wilmington, NC

Home | Current Version | Previous Version | Text Only | Print | Product List | Glossary On
Versions: 1 2 3 4 5 6 7 8 9 10 11 12 13
000
FTUS42 KILM 272300
TAFFLO
TAF
KFLO 272322Z 2800/2824 00000KT P6SM BKN250
     FM280900 VRB02KT 5SM BR FEW060 BKN120
      TEMPO 2811/2815 -RA BKN060
     FM281500 23007KT P6SM SCT020 BKN060=

USA.gov is the U.S. government's official web portal to all federal, state and local government web resources and services.